sensor_id;sensor_type;location;lat;lon;timestamp;temperature;humidity
53073;DHT22;38955;48.916;2.336;2023-05-10T00:00:26;14.90;99.90
53073;DHT22;38955;48.916;2.336;2023-05-10T00:02:28;14.90;99.90
53073;DHT22;38955;48.916;2.336;2023-05-10T00:04:31;14.90;99.90
53073;DHT22;38955;48.916;2.336;2023-05-10T00:06:34;15.00;99.90
53073;DHT22;38955;48.916;2.336;2023-05-10T00:08:37;15.00;99.90
53073;DHT22;38955;48.916;2.336;2023-05-10T00:10:39;15.00;99.90
53073;DHT22;38955;48.916;2.336;2023-05-10T00:12:42;14.90;99.90
53073;DHT22;38955;48.916;2.336;2023-05-10T00:14:44;15.00;99.90
53073;DHT22;38955;48.916;2.336;2023-05-10T00:16:47;15.10;99.90
53073;DHT22;38955;48.916;2.336;2023-05-10T00:18:49;14.90;99.90
53073;DHT22;38955;48.916;2.336;2023-05-10T00:20:51;14.80;99.90
53073;DHT22;38955;48.916;2.336;2023-05-10T00:22:53;14.90;99.90
53073;DHT22;38955;48.916;2.336;2023-05-10T00:24:56;14.70;99.90
53073;DHT22;38955;48.916;2.336;2023-05-10T00:26:59;14.40;99.90
53073;DHT22;38955;48.916;2.336;2023-05-10T00:29:02;14.10;99.90
53073;DHT22;38955;48.916;2.336;2023-05-10T00:31:04;14.10;99.90
53073;DHT22;38955;48.916;2.336;2023-05-10T00:33:06;13.90;99.90
53073;DHT22;38955;48.916;2.336;2023-05-10T00:35:08;13.70;99.90
53073;DHT22;38955;48.916;2.336;2023-05-10T00:37:11;13.60;99.90
53073;DHT22;38955;48.916;2.336;2023-05-10T00:39:12;13.50;99.90
53073;DHT22;38955;48.916;2.336;2023-05-10T00:41:16;13.50;99.90
53073;DHT22;38955;48.916;2.336;2023-05-10T00:43:18;13.40;99.90
53073;DHT22;38955;48.916;2.336;2023-05-10T00:45:20;13.40;99.90
53073;DHT22;38955;48.916;2.336;2023-05-10T00:47:22;13.30;99.90
53073;DHT22;38955;48.916;2.336;2023-05-10T00:49:24;13.30;99.90
53073;DHT22;38955;48.916;2.336;2023-05-10T00:51:27;13.30;99.90
53073;DHT22;38955;48.916;2.336;2023-05-10T00:53:31;13.20;99.90
53073;DHT22;38955;48.916;2.336;2023-05-10T00:55:34;13.10;99.90
53073;DHT22;38955;48.916;2.336;2023-05-10T00:57:37;13.10;99.90
53073;DHT22;38955;48.916;2.336;2023-05-10T00:59:39;13.20;99.90
53073;DHT22;38955;48.916;2.336;2023-05-10T01:01:42;13.20;99.90
53073;DHT22;38955;48.916;2.336;2023-05-10T01:03:45;13.10;99.90
53073;DHT22;38955;48.916;2.336;2023-05-10T01:05:48;13.20;99.90
53073;DHT22;38955;48.916;2.336;2023-05-10T01:07:50;13.20;99.90
53073;DHT22;38955;48.916;2.336;2023-05-10T01:09:52;13.20;99.90
53073;DHT22;38955;48.916;2.336;2023-05-10T01:11:55;13.20;99.90
53073;DHT22;38955;48.916;2.336;2023-05-10T01:13:59;13.30;99.90
53073;DHT22;38955;48.916;2.336;2023-05-10T01:16:01;13.30;99.90
53073;DHT22;38955;48.916;2.336;2023-05-10T01:18:05;13.20;99.90
53073;DHT22;38955;48.916;2.336;2023-05-10T01:20:10;13.20;99.90
53073;DHT22;38955;48.916;2.336;2023-05-10T01:25:11;13.20;99.90
53073;DHT22;38955;48.916;2.336;2023-05-10T01:27:47;13.20;99.90
53073;DHT22;38955;48.916;2.336;2023-05-10T01:30:14;13.20;99.90
53073;DHT22;38955;48.916;2.336;2023-05-10T01:32:33;13.20;99.90
53073;DHT22;38955;48.916;2.336;2023-05-10T01:34:45;13.10;99.90
53073;DHT22;38955;48.916;2.336;2023-05-10T01:36:53;13.20;99.90
53073;DHT22;38955;48.916;2.336;2023-05-10T01:39:01;13.20;99.90
53073;DHT22;38955;48.916;2.336;2023-05-10T01:41:11;13.20;99.90
53073;DHT22;38955;48.916;2.336;2023-05-10T01:43:19;13.20;99.90
53073;DHT22;38955;48.916;2.336;2023-05-10T01:45:28;13.20;99.90
53073;DHT22;38955;48.916;2.336;2023-05-10T01:47:38;13.30;99.90
53073;DHT22;38955;48.916;2.336;2023-05-10T01:49:44;13.30;99.90
53073;DHT22;38955;48.916;2.336;2023-05-10T01:51:51;13.40;99.90
53073;DHT22;38955;48.916;2.336;2023-05-10T01:54:00;13.40;99.90
53073;DHT22;38955;48.916;2.336;2023-05-10T01:56:03;13.30;99.90
53073;DHT22;38955;48.916;2.336;2023-05-10T01:58:08;13.30;99.90
53073;DHT22;38955;48.916;2.336;2023-05-10T02:00:11;13.30;99.90
53073;DHT22;38955;48.916;2.336;2023-05-10T02:02:15;13.20;99.90
53073;DHT22;38955;48.916;2.336;2023-05-10T02:04:22;13.20;99.90
53073;DHT22;38955;48.916;2.336;2023-05-10T02:06:26;13.20;99.90
53073;DHT22;38955;48.916;2.336;2023-05-10T02:08:29;13.10;99.90
53073;DHT22;38955;48.916;2.336;2023-05-10T02:10:32;13.10;99.90
53073;DHT22;38955;48.916;2.336;2023-05-10T02:12:37;13.10;99.90
53073;DHT22;38955;48.916;2.336;2023-05-10T02:14:41;13.20;99.90
53073;DHT22;38955;48.916;2.336;2023-05-10T02:16:45;13.00;99.90
53073;DHT22;38955;48.916;2.336;2023-05-10T02:18:48;12.90;99.90
53073;DHT22;38955;48.916;2.336;2023-05-10T02:20:53;12.90;99.90
53073;DHT22;38955;48.916;2.336;2023-05-10T02:22:57;12.90;99.90
53073;DHT22;38955;48.916;2.336;2023-05-10T02:25:01;12.80;99.90
53073;DHT22;38955;48.916;2.336;2023-05-10T02:27:05;12.80;99.90
53073;DHT22;38955;48.916;2.336;2023-05-10T02:29:08;12.80;99.90
53073;DHT22;38955;48.916;2.336;2023-05-10T02:31:11;12.80;99.90
53073;DHT22;38955;48.916;2.336;2023-05-10T02:33:14;12.80;99.90
53073;DHT22;38955;48.916;2.336;2023-05-10T02:35:17;12.90;99.90
53073;DHT22;38955;48.916;2.336;2023-05-10T02:37:36;12.90;99.90
53073;DHT22;38955;48.916;2.336;2023-05-10T02:43:27;12.90;99.90
53073;DHT22;38955;48.916;2.336;2023-05-10T02:45:32;12.70;99.90
53073;DHT22;38955;48.916;2.336;2023-05-10T02:47:40;12.70;99.90
53073;DHT22;38955;48.916;2.336;2023-05-10T02:49:42;12.70;99.90
53073;DHT22;38955;48.916;2.336;2023-05-10T02:51:51;12.80;99.90
53073;DHT22;38955;48.916;2.336;2023-05-10T02:54:02;12.70;99.90
53073;DHT22;38955;48.916;2.336;2023-05-10T02:56:11;12.70;99.90
53073;DHT22;38955;48.916;2.336;2023-05-10T02:58:15;12.70;99.90
53073;DHT22;38955;48.916;2.336;2023-05-10T03:00:17;12.80;99.90
53073;DHT22;38955;48.916;2.336;2023-05-10T03:02:20;12.80;99.90
53073;DHT22;38955;48.916;2.336;2023-05-10T03:04:22;12.90;99.90
53073;DHT22;38955;48.916;2.336;2023-05-10T03:06:24;12.80;99.90
53073;DHT22;38955;48.916;2.336;2023-05-10T03:08:27;12.90;99.90
53073;DHT22;38955;48.916;2.336;2023-05-10T03:10:35;12.90;99.90
53073;DHT22;38955;48.916;2.336;2023-05-10T03:12:57;12.90;99.90
53073;DHT22;38955;48.916;2.336;2023-05-10T03:15:06;13.00;99.90
53073;DHT22;38955;48.916;2.336;2023-05-10T03:17:18;13.10;99.90
53073;DHT22;38955;48.916;2.336;2023-05-10T03:19:26;13.10;99.90
53073;DHT22;38955;48.916;2.336;2023-05-10T03:21:29;13.00;99.90
53073;DHT22;38955;48.916;2.336;2023-05-10T03:23:35;13.00;99.90
53073;DHT22;38955;48.916;2.336;2023-05-10T03:25:40;13.10;99.90
53073;DHT22;38955;48.916;2.336;2023-05-10T03:27:43;13.10;99.90
53073;DHT22;38955;48.916;2.336;2023-05-10T03:29:46;13.20;99.90
53073;DHT22;38955;48.916;2.336;2023-05-10T03:31:48;13.20;99.90
53073;DHT22;38955;48.916;2.336;2023-05-10T03:33:51;13.30;99.90
53073;DHT22;38955;48.916;2.336;2023-05-10T03:35:53;13.20;99.90
53073;DHT22;38955;48.916;2.336;2023-05-10T03:37:55;13.30;99.90
53073;DHT22;38955;48.916;2.336;2023-05-10T03:39:57;13.30;99.90
53073;DHT22;38955;48.916;2.336;2023-05-10T03:42:01;13.20;99.90
53073;DHT22;38955;48.916;2.336;2023-05-10T03:44:03;13.30;99.90
53073;DHT22;38955;48.916;2.336;2023-05-10T03:46:06;13.20;99.90
53073;DHT22;38955;48.916;2.336;2023-05-10T03:48:08;13.30;99.90
53073;DHT22;38955;48.916;2.336;2023-05-10T03:50:10;13.20;99.90
53073;DHT22;38955;48.916;2.336;2023-05-10T03:52:12;13.20;99.90
53073;DHT22;38955;48.916;2.336;2023-05-10T03:54:14;13.20;99.90
53073;DHT22;38955;48.916;2.336;2023-05-10T03:56:16;13.20;99.90
53073;DHT22;38955;48.916;2.336;2023-05-10T03:58:20;13.20;99.90
53073;DHT22;38955;48.916;2.336;2023-05-10T04:00:22;13.20;99.90
53073;DHT22;38955;48.916;2.336;2023-05-10T04:02:24;13.20;99.90
53073;DHT22;38955;48.916;2.336;2023-05-10T04:04:26;13.10;99.90
53073;DHT22;38955;48.916;2.336;2023-05-10T04:06:28;13.20;99.90
53073;DHT22;38955;48.916;2.336;2023-05-10T04:08:31;13.10;99.90
53073;DHT22;38955;48.916;2.336;2023-05-10T04:10:33;13.00;99.90
53073;DHT22;38955;48.916;2.336;2023-05-10T04:12:35;13.20;99.90
53073;DHT22;38955;48.916;2.336;2023-05-10T04:14:38;13.20;99.90
53073;DHT22;38955;48.916;2.336;2023-05-10T04:16:40;13.20;99.90
53073;DHT22;38955;48.916;2.336;2023-05-10T04:18:42;13.20;99.90
53073;DHT22;38955;48.916;2.336;2023-05-10T04:20:44;13.20;99.90
53073;DHT22;38955;48.916;2.336;2023-05-10T04:22:46;13.20;99.90
53073;DHT22;38955;48.916;2.336;2023-05-10T04:24:48;13.20;99.90
53073;DHT22;38955;48.916;2.336;2023-05-10T04:26:50;13.20;99.90
53073;DHT22;38955;48.916;2.336;2023-05-10T04:28:52;13.10;99.90
53073;DHT22;38955;48.916;2.336;2023-05-10T04:31:02;13.10;99.90
53073;DHT22;38955;48.916;2.336;2023-05-10T04:33:04;13.20;99.90
53073;DHT22;38955;48.916;2.336;2023-05-10T04:35:07;13.30;99.90
53073;DHT22;38955;48.916;2.336;2023-05-10T04:37:09;13.30;99.90
53073;DHT22;38955;48.916;2.336;2023-05-10T04:39:11;13.30;99.90
53073;DHT22;38955;48.916;2.336;2023-05-10T04:41:13;13.30;99.90
53073;DHT22;38955;48.916;2.336;2023-05-10T04:43:15;13.30;99.90
53073;DHT22;38955;48.916;2.336;2023-05-10T04:45:17;13.20;99.90
53073;DHT22;38955;48.916;2.336;2023-05-10T04:47:21;13.30;99.90
53073;DHT22;38955;48.916;2.336;2023-05-10T04:49:23;13.30;99.90
53073;DHT22;38955;48.916;2.336;2023-05-10T04:51:25;13.20;99.90
53073;DHT22;38955;48.916;2.336;2023-05-10T04:53:27;13.10;99.90
53073;DHT22;38955;48.916;2.336;2023-05-10T04:55:29;13.20;99.90
53073;DHT22;38955;48.916;2.336;2023-05-10T04:57:31;13.20;99.90
53073;DHT22;38955;48.916;2.336;2023-05-10T04:59:35;13.20;99.90
53073;DHT22;38955;48.916;2.336;2023-05-10T05:01:38;13.20;99.90
53073;DHT22;38955;48.916;2.336;2023-05-10T05:03:41;13.20;99.90
53073;DHT22;38955;48.916;2.336;2023-05-10T05:05:44;13.20;99.90
53073;DHT22;38955;48.916;2.336;2023-05-10T05:07:46;13.10;99.90
53073;DHT22;38955;48.916;2.336;2023-05-10T05:09:48;13.20;99.90
53073;DHT22;38955;48.916;2.336;2023-05-10T05:11:51;13.20;99.90
53073;DHT22;38955;48.916;2.336;2023-05-10T05:13:52;13.30;99.90
53073;DHT22;38955;48.916;2.336;2023-05-10T05:15:55;13.20;99.90
53073;DHT22;38955;48.916;2.336;2023-05-10T05:17:57;13.20;99.90
53073;DHT22;38955;48.916;2.336;2023-05-10T05:20:00;13.20;99.90
53073;DHT22;38955;48.916;2.336;2023-05-10T05:22:02;13.10;99.90
53073;DHT22;38955;48.916;2.336;2023-05-10T05:24:05;13.10;99.90
53073;DHT22;38955;48.916;2.336;2023-05-10T05:26:07;13.20;99.90
53073;DHT22;38955;48.916;2.336;2023-05-10T05:28:09;13.30;99.90
53073;DHT22;38955;48.916;2.336;2023-05-10T05:30:12;13.20;99.90
53073;DHT22;38955;48.916;2.336;2023-05-10T05:32:14;13.20;99.90
53073;DHT22;38955;48.916;2.336;2023-05-10T05:34:16;13.30;99.90
53073;DHT22;38955;48.916;2.336;2023-05-10T05:36:19;13.30;99.90
53073;DHT22;38955;48.916;2.336;2023-05-10T05:38:21;13.40;99.90
53073;DHT22;38955;48.916;2.336;2023-05-10T05:40:23;13.40;99.90
53073;DHT22;38955;48.916;2.336;2023-05-10T05:42:26;13.30;99.90
53073;DHT22;38955;48.916;2.336;2023-05-10T05:44:28;13.50;99.90
53073;DHT22;38955;48.916;2.336;2023-05-10T05:46:30;13.50;99.90
53073;DHT22;38955;48.916;2.336;2023-05-10T05:48:32;13.50;99.90
53073;DHT22;38955;48.916;2.336;2023-05-10T05:50:34;13.60;99.90
53073;DHT22;38955;48.916;2.336;2023-05-10T05:52:38;13.70;99.90
53073;DHT22;38955;48.916;2.336;2023-05-10T05:54:40;13.70;99.90
53073;DHT22;38955;48.916;2.336;2023-05-10T05:56:42;13.80;99.90
53073;DHT22;38955;48.916;2.336;2023-05-10T05:58:45;13.80;99.90
53073;DHT22;38955;48.916;2.336;2023-05-10T06:00:48;13.70;99.90
53073;DHT22;38955;48.916;2.336;2023-05-10T06:02:50;13.90;99.90
53073;DHT22;38955;48.916;2.336;2023-05-10T06:04:52;13.90;99.90
53073;DHT22;38955;48.916;2.336;2023-05-10T06:06:54;14.10;99.90
53073;DHT22;38955;48.916;2.336;2023-05-10T06:08:57;14.10;99.90
53073;DHT22;38955;48.916;2.336;2023-05-10T06:10:59;14.20;99.90
53073;DHT22;38955;48.916;2.336;2023-05-10T06:13:01;14.30;99.90
53073;DHT22;38955;48.916;2.336;2023-05-10T06:15:05;14.20;99.90
53073;DHT22;38955;48.916;2.336;2023-05-10T06:17:07;14.10;99.90
53073;DHT22;38955;48.916;2.336;2023-05-10T06:19:09;13.90;99.90
53073;DHT22;38955;48.916;2.336;2023-05-10T06:21:11;13.90;99.90
53073;DHT22;38955;48.916;2.336;2023-05-10T06:23:13;14.00;99.90
53073;DHT22;38955;48.916;2.336;2023-05-10T06:25:16;13.90;99.90
53073;DHT22;38955;48.916;2.336;2023-05-10T06:27:20;13.90;99.90
53073;DHT22;38955;48.916;2.336;2023-05-10T06:29:22;13.90;99.90
53073;DHT22;38955;48.916;2.336;2023-05-10T06:31:24;14.00;99.90
53073;DHT22;38955;48.916;2.336;2023-05-10T06:33:26;14.00;99.90
53073;DHT22;38955;48.916;2.336;2023-05-10T06:35:28;13.90;99.90
53073;DHT22;38955;48.916;2.336;2023-05-10T06:37:30;13.90;99.90
53073;DHT22;38955;48.916;2.336;2023-05-10T06:39:32;13.80;99.90
53073;DHT22;38955;48.916;2.336;2023-05-10T06:41:35;13.80;99.90
53073;DHT22;38955;48.916;2.336;2023-05-10T06:43:37;13.70;99.90
53073;DHT22;38955;48.916;2.336;2023-05-10T06:45:43;13.90;99.90
53073;DHT22;38955;48.916;2.336;2023-05-10T06:47:45;14.00;99.90
53073;DHT22;38955;48.916;2.336;2023-05-10T06:49:47;14.00;99.90
53073;DHT22;38955;48.916;2.336;2023-05-10T06:51:49;14.00;99.90
53073;DHT22;38955;48.916;2.336;2023-05-10T06:53:51;14.00;99.90
53073;DHT22;38955;48.916;2.336;2023-05-10T06:55:54;14.00;99.90
53073;DHT22;38955;48.916;2.336;2023-05-10T06:57:57;14.10;99.90
53073;DHT22;38955;48.916;2.336;2023-05-10T06:59:59;14.10;99.90
53073;DHT22;38955;48.916;2.336;2023-05-10T07:02:01;14.10;99.90
53073;DHT22;38955;48.916;2.336;2023-05-10T07:04:04;14.20;99.90
53073;DHT22;38955;48.916;2.336;2023-05-10T07:06:06;14.30;99.90
53073;DHT22;38955;48.916;2.336;2023-05-10T07:08:19;14.20;99.90
53073;DHT22;38955;48.916;2.336;2023-05-10T07:10:21;14.40;99.90
53073;DHT22;38955;48.916;2.336;2023-05-10T07:12:23;14.40;99.90
53073;DHT22;38955;48.916;2.336;2023-05-10T07:14:26;14.50;99.90
53073;DHT22;38955;48.916;2.336;2023-05-10T07:16:28;14.40;99.90
53073;DHT22;38955;48.916;2.336;2023-05-10T07:18:31;14.50;99.90
53073;DHT22;38955;48.916;2.336;2023-05-10T07:20:33;14.40;99.90
53073;DHT22;38955;48.916;2.336;2023-05-10T07:22:35;14.40;99.90
53073;DHT22;38955;48.916;2.336;2023-05-10T07:24:37;14.40;99.90
53073;DHT22;38955;48.916;2.336;2023-05-10T07:26:39;14.30;99.90
53073;DHT22;38955;48.916;2.336;2023-05-10T07:28:41;14.20;99.90
53073;DHT22;38955;48.916;2.336;2023-05-10T07:30:45;14.20;99.90
53073;DHT22;38955;48.916;2.336;2023-05-10T07:32:47;14.20;99.90
53073;DHT22;38955;48.916;2.336;2023-05-10T07:34:49;14.20;99.90
53073;DHT22;38955;48.916;2.336;2023-05-10T07:36:52;14.10;99.90
53073;DHT22;38955;48.916;2.336;2023-05-10T07:38:54;14.10;99.90
53073;DHT22;38955;48.916;2.336;2023-05-10T07:40:56;14.20;99.90
53073;DHT22;38955;48.916;2.336;2023-05-10T07:42:58;14.10;99.90
53073;DHT22;38955;48.916;2.336;2023-05-10T07:45:01;14.00;99.90
53073;DHT22;38955;48.916;2.336;2023-05-10T07:47:05;13.90;99.90
53073;DHT22;38955;48.916;2.336;2023-05-10T07:49:07;13.90;99.90
53073;DHT22;38955;48.916;2.336;2023-05-10T07:51:09;13.90;99.90
53073;DHT22;38955;48.916;2.336;2023-05-10T07:53:11;13.90;99.90
53073;DHT22;38955;48.916;2.336;2023-05-10T07:55:13;13.90;99.90
53073;DHT22;38955;48.916;2.336;2023-05-10T07:57:15;13.90;99.90
53073;DHT22;38955;48.916;2.336;2023-05-10T07:59:19;13.90;99.90
53073;DHT22;38955;48.916;2.336;2023-05-10T08:01:22;14.00;99.90
53073;DHT22;38955;48.916;2.336;2023-05-10T08:03:25;14.00;99.90
53073;DHT22;38955;48.916;2.336;2023-05-10T08:05:27;14.00;99.90
53073;DHT22;38955;48.916;2.336;2023-05-10T08:07:30;13.90;99.90
53073;DHT22;38955;48.916;2.336;2023-05-10T08:09:32;14.00;99.90
53073;DHT22;38955;48.916;2.336;2023-05-10T08:11:33;14.10;99.90
53073;DHT22;38955;48.916;2.336;2023-05-10T08:13:36;14.60;99.90
53073;DHT22;38955;48.916;2.336;2023-05-10T08:15:38;15.00;99.90
53073;DHT22;38955;48.916;2.336;2023-05-10T08:17:40;15.20;99.90
53073;DHT22;38955;48.916;2.336;2023-05-10T08:19:44;15.30;99.90
53073;DHT22;38955;48.916;2.336;2023-05-10T08:21:46;15.50;99.90
53073;DHT22;38955;48.916;2.336;2023-05-10T08:23:48;15.40;99.90
53073;DHT22;38955;48.916;2.336;2023-05-10T08:25:51;15.50;99.90
53073;DHT22;38955;48.916;2.336;2023-05-10T08:27:53;15.70;99.90
53073;DHT22;38955;48.916;2.336;2023-05-10T08:29:55;15.70;99.90
53073;DHT22;38955;48.916;2.336;2023-05-10T08:31:57;15.90;99.90
53073;DHT22;38955;48.916;2.336;2023-05-10T08:33:59;15.80;99.90
53073;DHT22;38955;48.916;2.336;2023-05-10T08:36:03;15.80;99.90
53073;DHT22;38955;48.916;2.336;2023-05-10T08:38:05;15.80;99.90
53073;DHT22;38955;48.916;2.336;2023-05-10T08:40:09;15.90;99.90
53073;DHT22;38955;48.916;2.336;2023-05-10T08:42:19;15.90;99.90
53073;DHT22;38955;48.916;2.336;2023-05-10T08:44:22;16.00;99.90
53073;DHT22;38955;48.916;2.336;2023-05-10T08:46:27;16.10;99.90
53073;DHT22;38955;48.916;2.336;2023-05-10T08:48:30;16.20;99.90
53073;DHT22;38955;48.916;2.336;2023-05-10T08:50:35;16.30;99.90
53073;DHT22;38955;48.916;2.336;2023-05-10T08:52:40;16.20;99.90
53073;DHT22;38955;48.916;2.336;2023-05-10T08:54:43;16.40;99.90
53073;DHT22;38955;48.916;2.336;2023-05-10T08:56:45;16.50;99.90
53073;DHT22;38955;48.916;2.336;2023-05-10T08:58:50;16.60;99.90
53073;DHT22;38955;48.916;2.336;2023-05-10T09:00:52;16.70;99.90
53073;DHT22;38955;48.916;2.336;2023-05-10T09:02:56;16.70;99.90
53073;DHT22;38955;48.916;2.336;2023-05-10T09:04:58;16.80;99.90
53073;DHT22;38955;48.916;2.336;2023-05-10T09:07:00;16.90;99.90
53073;DHT22;38955;48.916;2.336;2023-05-10T09:09:04;16.90;99.90
53073;DHT22;38955;48.916;2.336;2023-05-10T09:11:06;16.90;99.90
53073;DHT22;38955;48.916;2.336;2023-05-10T09:13:10;16.90;99.90
53073;DHT22;38955;48.916;2.336;2023-05-10T09:15:15;17.00;99.90
53073;DHT22;38955;48.916;2.336;2023-05-10T09:17:17;17.00;99.90
53073;DHT22;38955;48.916;2.336;2023-05-10T09:19:20;17.00;99.90
53073;DHT22;38955;48.916;2.336;2023-05-10T09:21:22;17.00;99.90
53073;DHT22;38955;48.916;2.336;2023-05-10T09:23:24;17.00;99.90
53073;DHT22;38955;48.916;2.336;2023-05-10T09:25:35;16.90;99.90
53073;DHT22;38955;48.916;2.336;2023-05-10T09:27:38;17.00;99.90
53073;DHT22;38955;48.916;2.336;2023-05-10T09:29:41;16.90;99.90
53073;DHT22;38955;48.916;2.336;2023-05-10T09:31:44;17.10;99.90
53073;DHT22;38955;48.916;2.336;2023-05-10T09:33:49;17.10;99.90
53073;DHT22;38955;48.916;2.336;2023-05-10T09:35:52;17.10;99.90
53073;DHT22;38955;48.916;2.336;2023-05-10T09:37:55;17.10;99.90
53073;DHT22;38955;48.916;2.336;2023-05-10T09:39:58;17.10;99.90
53073;DHT22;38955;48.916;2.336;2023-05-10T09:42:02;17.10;99.90
53073;DHT22;38955;48.916;2.336;2023-05-10T09:44:07;17.20;99.90
53073;DHT22;38955;48.916;2.336;2023-05-10T09:46:09;17.10;99.90
53073;DHT22;38955;48.916;2.336;2023-05-10T09:48:13;17.00;99.90
53073;DHT22;38955;48.916;2.336;2023-05-10T09:50:15;16.90;99.90
53073;DHT22;38955;48.916;2.336;2023-05-10T09:52:17;16.90;99.90
53073;DHT22;38955;48.916;2.336;2023-05-10T09:54:19;16.80;99.90
53073;DHT22;38955;48.916;2.336;2023-05-10T09:56:34;16.90;99.90
53073;DHT22;38955;48.916;2.336;2023-05-10T09:58:42;17.10;99.90
53073;DHT22;38955;48.916;2.336;2023-05-10T10:00:45;17.00;99.90
53073;DHT22;38955;48.916;2.336;2023-05-10T10:02:55;17.10;99.90
53073;DHT22;38955;48.916;2.336;2023-05-10T10:07:02;17.10;99.90
53073;DHT22;38955;48.916;2.336;2023-05-10T10:09:05;17.20;99.90
53073;DHT22;38955;48.916;2.336;2023-05-10T10:11:07;17.30;99.90
53073;DHT22;38955;48.916;2.336;2023-05-10T10:13:10;17.30;99.90
53073;DHT22;38955;48.916;2.336;2023-05-10T10:15:13;17.40;99.90
53073;DHT22;38955;48.916;2.336;2023-05-10T10:17:18;17.40;99.90
53073;DHT22;38955;48.916;2.336;2023-05-10T10:19:21;17.30;99.90
53073;DHT22;38955;48.916;2.336;2023-05-10T10:21:24;17.20;99.90
53073;DHT22;38955;48.916;2.336;2023-05-10T10:23:27;17.30;99.90
53073;DHT22;38955;48.916;2.336;2023-05-10T10:25:29;17.50;99.90
53073;DHT22;38955;48.916;2.336;2023-05-10T10:27:46;17.60;99.90
53073;DHT22;38955;48.916;2.336;2023-05-10T10:29:58;17.70;99.90
53073;DHT22;38955;48.916;2.336;2023-05-10T10:32:11;17.90;99.90
53073;DHT22;38955;48.916;2.336;2023-05-10T10:34:25;18.00;99.90
53073;DHT22;38955;48.916;2.336;2023-05-10T10:36:29;18.10;99.90
53073;DHT22;38955;48.916;2.336;2023-05-10T10:38:59;18.20;99.90
53073;DHT22;38955;48.916;2.336;2023-05-10T10:41:02;18.50;99.90
53073;DHT22;38955;48.916;2.336;2023-05-10T10:43:22;18.50;99.90
53073;DHT22;38955;48.916;2.336;2023-05-10T10:45:25;18.60;99.90
53073;DHT22;38955;48.916;2.336;2023-05-10T10:47:30;18.50;99.90
53073;DHT22;38955;48.916;2.336;2023-05-10T10:49:42;18.40;99.90
53073;DHT22;38955;48.916;2.336;2023-05-10T10:52:13;18.50;99.90
53073;DHT22;38955;48.916;2.336;2023-05-10T10:54:27;18.50;99.90
53073;DHT22;38955;48.916;2.336;2023-05-10T10:56:30;18.50;99.20
53073;DHT22;38955;48.916;2.336;2023-05-10T10:58:32;18.50;99.60
53073;DHT22;38955;48.916;2.336;2023-05-10T11:00:36;18.60;99.40
53073;DHT22;38955;48.916;2.336;2023-05-10T11:02:47;18.50;99.20
53073;DHT22;38955;48.916;2.336;2023-05-10T11:04:50;18.50;99.90
53073;DHT22;38955;48.916;2.336;2023-05-10T11:07:15;18.60;99.70
53073;DHT22;38955;48.916;2.336;2023-05-10T11:09:18;18.60;99.60
53073;DHT22;38955;48.916;2.336;2023-05-10T11:11:20;18.60;99.70
53073;DHT22;38955;48.916;2.336;2023-05-10T11:13:29;18.70;99.10
53073;DHT22;38955;48.916;2.336;2023-05-10T11:15:32;18.80;99.00
53073;DHT22;38955;48.916;2.336;2023-05-10T11:17:35;18.80;99.80
53073;DHT22;38955;48.916;2.336;2023-05-10T11:20:07;18.80;98.50
53073;DHT22;38955;48.916;2.336;2023-05-10T11:22:14;18.60;98.30
53073;DHT22;38955;48.916;2.336;2023-05-10T11:24:19;18.70;99.90
53073;DHT22;38955;48.916;2.336;2023-05-10T11:26:21;18.60;99.90
53073;DHT22;38955;48.916;2.336;2023-05-10T11:28:27;18.40;98.80
53073;DHT22;38955;48.916;2.336;2023-05-10T11:30:31;18.40;99.10
53073;DHT22;38955;48.916;2.336;2023-05-10T11:32:33;18.40;99.90
53073;DHT22;38955;48.916;2.336;2023-05-10T11:34:35;18.50;99.50
53073;DHT22;38955;48.916;2.336;2023-05-10T11:36:38;18.60;99.80
53073;DHT22;38955;48.916;2.336;2023-05-10T11:38:40;18.90;98.80
53073;DHT22;38955;48.916;2.336;2023-05-10T11:40:43;18.90;97.70
53073;DHT22;38955;48.916;2.336;2023-05-10T11:42:45;19.30;99.00
53073;DHT22;38955;48.916;2.336;2023-05-10T11:44:48;19.50;98.10
53073;DHT22;38955;48.916;2.336;2023-05-10T11:46:50;19.60;98.10
53073;DHT22;38955;48.916;2.336;2023-05-10T11:48:53;19.60;97.50
53073;DHT22;38955;48.916;2.336;2023-05-10T11:51:00;19.40;97.30
53073;DHT22;38955;48.916;2.336;2023-05-10T11:53:03;19.50;97.10
53073;DHT22;38955;48.916;2.336;2023-05-10T11:55:06;19.30;96.70
53073;DHT22;38955;48.916;2.336;2023-05-10T11:57:08;19.40;97.40
53073;DHT22;38955;48.916;2.336;2023-05-10T11:59:10;19.30;97.10
53073;DHT22;38955;48.916;2.336;2023-05-10T12:01:12;19.30;96.20
53073;DHT22;38955;48.916;2.336;2023-05-10T12:03:14;19.20;95.90
53073;DHT22;38955;48.916;2.336;2023-05-10T12:05:17;19.00;94.00
53073;DHT22;38955;48.916;2.336;2023-05-10T12:07:19;18.90;95.20
53073;DHT22;38955;48.916;2.336;2023-05-10T12:09:23;18.90;94.90
53073;DHT22;38955;48.916;2.336;2023-05-10T12:11:29;19.00;94.50
53073;DHT22;38955;48.916;2.336;2023-05-10T12:13:31;18.90;94.80
53073;DHT22;38955;48.916;2.336;2023-05-10T12:15:33;18.80;94.00
53073;DHT22;38955;48.916;2.336;2023-05-10T12:17:37;18.60;94.50
53073;DHT22;38955;48.916;2.336;2023-05-10T12:19:41;18.50;94.90
53073;DHT22;38955;48.916;2.336;2023-05-10T12:21:44;18.40;95.40
53073;DHT22;38955;48.916;2.336;2023-05-10T12:23:46;18.30;96.80
53073;DHT22;38955;48.916;2.336;2023-05-10T12:25:50;18.40;96.00
53073;DHT22;38955;48.916;2.336;2023-05-10T12:27:54;18.40;95.70
53073;DHT22;38955;48.916;2.336;2023-05-10T12:29:59;18.30;95.10
53073;DHT22;38955;48.916;2.336;2023-05-10T12:32:01;18.30;96.00
53073;DHT22;38955;48.916;2.336;2023-05-10T12:34:04;18.40;95.80
53073;DHT22;38955;48.916;2.336;2023-05-10T12:36:06;18.50;95.90
53073;DHT22;38955;48.916;2.336;2023-05-10T12:38:24;18.60;96.50
53073;DHT22;38955;48.916;2.336;2023-05-10T12:40:27;18.60;95.10
53073;DHT22;38955;48.916;2.336;2023-05-10T12:42:30;18.40;94.90
53073;DHT22;38955;48.916;2.336;2023-05-10T12:44:33;18.30;94.90
53073;DHT22;38955;48.916;2.336;2023-05-10T12:46:35;18.40;95.00
53073;DHT22;38955;48.916;2.336;2023-05-10T12:48:38;18.30;95.40
53073;DHT22;38955;48.916;2.336;2023-05-10T12:50:41;18.30;96.20
53073;DHT22;38955;48.916;2.336;2023-05-10T12:52:43;18.30;95.20
53073;DHT22;38955;48.916;2.336;2023-05-10T12:54:45;18.40;95.70
53073;DHT22;38955;48.916;2.336;2023-05-10T12:56:48;18.40;95.90
53073;DHT22;38955;48.916;2.336;2023-05-10T12:58:52;18.30;96.10
53073;DHT22;38955;48.916;2.336;2023-05-10T13:00:54;18.30;96.30
53073;DHT22;38955;48.916;2.336;2023-05-10T13:02:58;18.30;96.40
53073;DHT22;38955;48.916;2.336;2023-05-10T13:05:00;18.20;96.20
53073;DHT22;38955;48.916;2.336;2023-05-10T13:07:02;18.10;95.90
53073;DHT22;38955;48.916;2.336;2023-05-10T13:09:04;18.10;95.80
53073;DHT22;38955;48.916;2.336;2023-05-10T13:11:07;18.10;96.20